Time,TemperatureF,DewpointF,PressureIn,WindDirection,WindDirectionDegrees,WindSpeedMPH,WindSpeedGustMPH,Humidity,HourlyPrecipIn,Conditions,Clouds,dailyrainin,SoftwareType,DateUTC
2013-12-25 11:22:00,44.8,24.8,30.13,SE,135,1.7,-999.0,45,-99.99,,,0.00,Acu-Link.com,2013-12-25 17:22:00,
2013-12-25 11:37:00,46.2,25.0,30.12,SSW,202,4.7,-999.0,43,-99.99,,,0.00,Acu-Link.com,2013-12-25 17:37:00,
2013-12-25 11:52:00,47.1,25.2,30.11,NW,315,1.7,-999.0,42,-99.99,,,0.00,Acu-Link.com,2013-12-25 17:52:00,
2013-12-25 12:08:00,46.6,25.3,30.09,NE,45,2.2,-999.0,43,-99.99,,,0.00,Acu-Link.com,2013-12-25 18:08:00,
2013-12-25 12:23:00,47.7,24.6,30.09,South,180,2.7,-999.0,40,-99.99,,,0.00,Acu-Link.com,2013-12-25 18:23:00,
2013-12-25 12:38:00,50.0,26.0,30.09,NW,315,1.1,-999.0,39,-99.99,,,0.00,Acu-Link.com,2013-12-25 18:38:00,
2013-12-25 12:53:00,51.4,26.7,30.08,SW,225,3.2,-999.0,38,-99.99,,,0.00,Acu-Link.com,2013-12-25 18:53:00,
2013-12-25 13:09:00,49.1,26.4,30.08,NE,45,4.7,-999.0,41,-99.99,,,0.00,Acu-Link.com,2013-12-25 19:09:00,
2013-12-25 13:24:00,47.7,25.2,30.07,NNE,22,4.7,-999.0,41,-99.99,,,0.00,Acu-Link.com,2013-12-25 19:24:00,
2013-12-25 13:41:00,47.7,25.2,30.07,West,270,3.7,-999.0,41,-99.99,,,0.00,Acu-Link.com,2013-12-25 19:41:00,
2013-12-25 13:57:00,48.6,25.4,30.07,NNW,337,3.2,-999.0,40,-99.99,,,0.00,Acu-Link.com,2013-12-25 19:57:00,
2013-12-25 14:12:00,50.2,24.9,30.05,NNW,337,5.3,-999.0,37,-99.99,,,0.00,Acu-Link.com,2013-12-25 20:12:00,
2013-12-25 14:30:00,48.4,24.0,30.05,NW,315,3.7,-999.0,38,-99.99,,,0.00,Acu-Link.com,2013-12-25 20:30:00,
2013-12-25 14:45:00,50.4,24.5,30.05,NE,45,5.8,-999.0,36,-99.99,,,0.00,Acu-Link.com,2013-12-25 20:45:00,
2013-12-25 15:00:00,49.6,22.4,30.05,WNW,292,4.7,-999.0,34,-99.99,,,0.00,Acu-Link.com,2013-12-25 21:00:00,
2013-12-25 15:15:00,49.5,23.0,30.06,NE,45,1.7,-999.0,35,-99.99,,,0.00,Acu-Link.com,2013-12-25 21:15:00,
2013-12-25 15:31:00,49.5,23.7,30.05,NE,45,3.7,-999.0,36,-99.99,,,0.00,Acu-Link.com,2013-12-25 21:31:00,
2013-12-25 15:46:00,49.5,25.0,30.05,NW,315,1.7,-999.0,38,-99.99,,,0.00,Acu-Link.com,2013-12-25 21:46:00,
2013-12-25 16:01:00,49.5,26.8,30.05,ESE,112,1.1,-999.0,41,-99.99,,,0.00,Acu-Link.com,2013-12-25 22:01:00,
2013-12-25 16:16:00,48.6,27.1,30.05,ENE,67,1.7,-999.0,43,-99.99,,,0.00,Acu-Link.com,2013-12-25 22:16:00,
2013-12-25 16:31:00,47.7,27.4,30.05,NE,45,1.7,-999.0,45,-99.99,,,0.00,Acu-Link.com,2013-12-25 22:31:00,
2013-12-25 16:47:00,46.2,28.1,30.05,NE,45,1.7,-999.0,49,-99.99,,,0.00,Acu-Link.com,2013-12-25 22:47:00,
2013-12-25 17:02:00,43.7,27.7,30.04,NE,45,0.0,-999.0,53,-99.99,,,0.00,Acu-Link.com,2013-12-25 23:02:00,
2013-12-25 17:17:00,40.8,29.2,30.04,NW,315,1.7,-999.0,63,-99.99,,,0.00,Acu-Link.com,2013-12-25 23:17:00,
2013-12-25 17:32:00,38.5,29.2,30.04,WNW,292,0.0,-999.0,69,-99.99,,,0.00,Acu-Link.com,2013-12-25 23:32:00,
2013-12-25 17:48:00,36.7,29.2,30.04,NNE,22,0.0,-999.0,74,-99.99,,,0.00,Acu-Link.com,2013-12-25 23:48:00,
2013-12-25 18:03:00,35.8,29.9,30.05,NW,315,0.0,-999.0,79,-99.99,,,0.00,Acu-Link.com,2013-12-26 00:03:00,
2013-12-25 18:19:00,35.1,28.9,30.07,North,0,0.0,-999.0,78,-99.99,,,0.00,Acu-Link.com,2013-12-26 00:19:00,
2013-12-25 18:35:00,34.7,28.6,30.08,North,0,0.0,-999.0,78,-99.99,,,0.00,Acu-Link.com,2013-12-26 00:35:00,
2013-12-25 18:50:00,34.0,27.9,30.09,NNE,22,0.0,-999.0,78,-99.99,,,0.00,Acu-Link.com,2013-12-26 00:50:00,
2013-12-25 19:05:00,33.6,28.4,30.09,NNE,22,0.0,-999.0,81,-99.99,,,0.00,Acu-Link.com,2013-12-26 01:05:00,
2013-12-25 19:20:00,33.3,27.5,30.10,East,90,0.0,-999.0,79,-99.99,,,0.00,Acu-Link.com,2013-12-26 01:20:00,
2013-12-25 19:36:00,33.8,29.5,30.10,NNE,22,0.0,-999.0,84,-99.99,,,0.00,Acu-Link.com,2013-12-26 01:36:00,
2013-12-25 19:51:00,32.5,27.6,30.11,ENE,67,0.0,-999.0,82,-99.99,,,0.00,Acu-Link.com,2013-12-26 01:51:00,
2013-12-25 20:06:00,32.2,28.2,30.11,East,90,0.0,-999.0,85,-99.99,,,0.00,Acu-Link.com,2013-12-26 02:06:00,
2013-12-25 20:21:00,31.5,27.8,30.11,West,270,0.0,-999.0,86,-99.99,,,0.00,Acu-Link.com,2013-12-26 02:21:00,
2013-12-25 20:36:00,30.9,28.0,30.11,West,270,0.0,-999.0,89,-99.99,,,0.00,Acu-Link.com,2013-12-26 02:36:00,
2013-12-25 20:51:00,30.6,28.3,30.12,West,270,0.0,-999.0,91,-99.99,,,0.00,Acu-Link.com,2013-12-26 02:51:00,
2013-12-25 21:06:00,30.2,28.4,30.12,West,270,0.0,-999.0,93,-99.99,,,0.00,Acu-Link.com,2013-12-26 03:06:00,
2013-12-25 21:21:00,30.0,28.2,30.12,West,270,0.0,-999.0,93,-99.99,,,0.00,Acu-Link.com,2013-12-26 03:21:00,
2013-12-25 21:36:00,29.5,27.7,30.11,West,270,0.0,-999.0,93,-99.99,,,0.00,Acu-Link.com,2013-12-26 03:36:00,
2013-12-25 21:52:00,29.5,27.7,30.11,West,270,0.0,-999.0,93,-99.99,,,0.00,Acu-Link.com,2013-12-26 03:52:00,
2013-12-25 22:07:00,29.8,28.5,30.12,West,270,0.0,-999.0,95,-99.99,,,0.00,Acu-Link.com,2013-12-26 04:07:00,
2013-12-25 22:22:00,28.8,27.3,30.11,WSW,247,0.0,-999.0,94,-99.99,,,0.00,Acu-Link.com,2013-12-26 04:22:00,
2013-12-25 22:37:00,28.6,27.4,30.11,SE,135,0.0,-999.0,95,-99.99,,,0.00,Acu-Link.com,2013-12-26 04:37:00,
2013-12-25 22:52:00,28.4,26.9,30.10,ESE,112,0.0,-999.0,94,-99.99,,,0.00,Acu-Link.com,2013-12-26 04:52:00,
2013-12-25 23:07:00,28.2,27.5,30.10,SW,225,0.0,-999.0,97,-99.99,,,0.00,Acu-Link.com,2013-12-26 05:07:00,
2013-12-25 23:23:00,28.4,27.9,30.09,South,180,0.0,-999.0,98,-99.99,,,0.00,Acu-Link.com,2013-12-26 05:23:00,
2013-12-25 23:38:00,28.0,27.3,30.09,South,180,0.0,-999.0,97,-99.99,,,0.00,Acu-Link.com,2013-12-26 05:38:00,
2013-12-25 23:53:00,27.7,27.0,30.08,South,180,0.0,-999.0,97,-99.99,,,0.00,Acu-Link.com,2013-12-26 05:53:00,